createdAt,value
2022-12-17T00:00:23.198Z,-2.23
2022-12-17T00:03:52.777Z,-2.21
2022-12-17T00:07:21.695Z,-2.21
2022-12-17T00:10:42.508Z,-2.19
2022-12-17T00:14:02.911Z,-2.18
2022-12-17T00:17:26.505Z,-2.11
2022-12-17T00:20:48.687Z,-2.08
2022-12-17T00:24:11.931Z,-2.09
2022-12-17T00:27:32.240Z,-2.08
2022-12-17T00:30:52.708Z,-2.08
2022-12-17T00:34:13.519Z,-2.08
2022-12-17T00:37:35.496Z,-2.08
2022-12-17T00:40:59.128Z,-2.11
2022-12-17T00:44:24.531Z,-2.08
2022-12-17T00:47:45.294Z,-2.08
2022-12-17T00:51:05.891Z,-2.06
2022-12-17T00:54:29.936Z,-2.04
2022-12-17T00:57:50.967Z,-2.09
2022-12-17T01:01:17.266Z,-2.02
2022-12-17T01:04:40.676Z,-2.02
2022-12-17T01:08:01.335Z,-2.02
2022-12-17T01:11:26.112Z,-2.01
2022-12-17T01:14:49.062Z,-1.98
2022-12-17T01:18:11.624Z,-1.90
2022-12-17T01:21:34.496Z,-1.96
2022-12-17T01:24:56.177Z,-1.94
2022-12-17T01:28:18.248Z,-1.97
2022-12-17T01:31:41.258Z,-1.92
2022-12-17T01:35:01.738Z,-2.00
2022-12-17T01:38:41.606Z,-2.02
2022-12-17T01:42:09.375Z,-2.03
2022-12-17T01:45:34.034Z,-2.00
2022-12-17T01:49:01.159Z,-2.03
2022-12-17T01:52:22.468Z,-2.06
2022-12-17T01:55:43.310Z,-2.02
2022-12-17T01:59:05.855Z,-1.99
2022-12-17T02:02:28.089Z,-1.90
2022-12-17T02:05:57.088Z,-1.94
2022-12-17T02:09:26.931Z,-1.99
2022-12-17T02:12:56.956Z,-2.01
2022-12-17T02:16:25.009Z,-1.98
2022-12-17T02:20:00.910Z,-1.99
2022-12-17T02:23:36.966Z,-1.95
2022-12-17T02:27:03.209Z,-1.95
2022-12-17T02:30:27.019Z,-1.99
2022-12-17T02:33:48.564Z,-1.97
2022-12-17T02:37:09.185Z,-1.96
2022-12-17T02:40:32.287Z,-2.05
2022-12-17T02:43:54.793Z,-2.09
2022-12-17T02:47:18.816Z,-2.05
2022-12-17T02:50:40.076Z,-2.05
2022-12-17T02:54:23.302Z,-2.08
2022-12-17T02:57:45.790Z,-2.04
2022-12-17T03:01:09.807Z,-2.04
2022-12-17T03:04:30.839Z,-1.96
2022-12-17T03:07:51.819Z,-2.01
2022-12-17T03:11:12.347Z,-2.02
2022-12-17T03:14:33.072Z,-2.05
2022-12-17T03:17:55.257Z,-2.02
2022-12-17T03:21:24.748Z,-2.00
2022-12-17T03:24:46.744Z,-2.03
2022-12-17T03:28:07.779Z,-2.08
2022-12-17T03:31:28.199Z,-2.05
2022-12-17T03:34:50.079Z,-2.18
2022-12-17T03:38:07.157Z,-2.19
2022-12-17T03:41:28.467Z,-2.21
2022-12-17T03:44:45.535Z,-2.20
2022-12-17T03:48:05.953Z,-2.19
2022-12-17T03:51:28.073Z,-2.10
2022-12-17T03:54:49.129Z,-2.13
2022-12-17T03:58:10.342Z,-2.13
2022-12-17T04:01:31.625Z,-2.23
2022-12-17T04:04:52.701Z,-2.20
2022-12-17T04:08:16.842Z,-2.18
2022-12-17T04:11:38.078Z,-2.17
2022-12-17T04:14:59.317Z,-2.17
2022-12-17T04:18:22.354Z,-2.25
2022-12-17T04:21:43.346Z,-2.28
2022-12-17T04:25:05.365Z,-2.26
2022-12-17T04:28:25.985Z,-2.20
2022-12-17T04:31:46.807Z,-2.26
2022-12-17T04:35:07.588Z,-2.27
2022-12-17T04:38:28.407Z,-2.26
2022-12-17T04:41:52.549Z,-2.20
2022-12-17T04:45:13.920Z,-2.26
2022-12-17T04:48:38.012Z,-2.36
2022-12-17T04:52:01.391Z,-2.41
2022-12-17T04:55:22.565Z,-2.43
2022-12-17T04:58:48.171Z,-2.38
2022-12-17T05:02:09.555Z,-2.38
2022-12-17T05:05:30.748Z,-2.33
2022-12-17T05:08:51.558Z,-2.27
2022-12-17T05:12:13.312Z,-2.25
2022-12-17T05:15:38.127Z,-2.27
2022-12-17T05:19:01.987Z,-2.24
2022-12-17T05:22:22.897Z,-2.25
2022-12-17T05:25:43.789Z,-2.31
2022-12-17T05:29:04.708Z,-2.35
2022-12-17T05:32:27.765Z,-2.27
2022-12-17T05:35:53.190Z,-2.32
2022-12-17T05:39:13.984Z,-2.34
2022-12-17T05:42:34.552Z,-2.29
2022-12-17T05:45:57.477Z,-2.34
2022-12-17T05:49:22.664Z,-2.39
2022-12-17T05:52:56.903Z,-2.41
2022-12-17T05:56:17.701Z,-2.37
2022-12-17T05:59:49.847Z,-2.32
2022-12-17T06:03:17.374Z,-2.41
2022-12-17T06:06:39.263Z,-2.40
2022-12-17T06:09:59.809Z,-2.47
2022-12-17T06:13:20.534Z,-2.41
2022-12-17T06:16:41.175Z,-2.50
2022-12-17T06:20:15.852Z,-2.46
2022-12-17T06:23:52.918Z,-2.57
2022-12-17T06:27:13.650Z,-2.63
2022-12-17T06:30:45.794Z,-2.66
2022-12-17T06:34:09.869Z,-2.68
2022-12-17T06:37:30.887Z,-2.56
2022-12-17T06:40:52.674Z,-2.60
2022-12-17T06:44:18.925Z,-2.56
2022-12-17T06:47:41.988Z,-2.48
2022-12-17T06:51:03.231Z,-2.62
2022-12-17T06:54:24.046Z,-2.65
2022-12-17T06:57:50.560Z,-2.66
2022-12-17T07:01:11.838Z,-2.53
2022-12-17T07:04:35.962Z,-2.49
2022-12-17T07:07:57.220Z,-2.45
2022-12-17T07:11:18.534Z,-2.47
2022-12-17T07:14:40.634Z,-2.53
2022-12-17T07:18:03.696Z,-2.62
2022-12-17T07:21:27.740Z,-2.68
2022-12-17T07:24:48.742Z,-2.70
2022-12-17T07:28:13.402Z,-2.63
2022-12-17T07:31:45.387Z,-2.68
2022-12-17T07:35:08.288Z,-2.71
2022-12-17T07:38:30.724Z,-2.71
2022-12-17T07:41:54.789Z,-2.72
2022-12-17T07:45:15.318Z,-2.68
2022-12-17T07:48:37.538Z,-2.63
2022-12-17T07:51:58.040Z,-2.59
2022-12-17T07:55:18.566Z,-2.58
2022-12-17T07:58:39.181Z,-2.50
2022-12-17T08:02:00.139Z,-2.44
2022-12-17T08:05:22.854Z,-2.43
2022-12-17T08:08:43.589Z,-2.47
2022-12-17T08:12:04.557Z,-2.47
2022-12-17T08:15:26.362Z,-2.57
2022-12-17T08:18:47.365Z,-2.68
2022-12-17T08:22:09.592Z,-2.58
2022-12-17T08:25:30.627Z,-2.65
2022-12-17T08:28:53.746Z,-2.65
2022-12-17T08:32:14.539Z,-2.50
2022-12-17T08:35:35.547Z,-2.43
2022-12-17T08:38:57.669Z,-2.46
2022-12-17T08:42:25.284Z,-2.35
2022-12-17T08:45:46.142Z,-2.41
2022-12-17T08:49:06.671Z,-2.44
2022-12-17T08:52:27.506Z,-2.56
2022-12-17T08:55:49.639Z,-2.64
2022-12-17T08:59:10.405Z,-2.41
2022-12-17T09:02:31.138Z,-2.45
2022-12-17T09:05:52.078Z,-2.50
2022-12-17T09:09:12.983Z,-2.57
2022-12-17T09:12:35.472Z,-2.48
2022-12-17T09:15:56.129Z,-2.39
2022-12-17T09:19:17.107Z,-2.37
2022-12-17T09:22:37.939Z,-2.43
2022-12-17T09:25:58.498Z,-2.47
2022-12-17T09:29:22.729Z,-2.34
2022-12-17T09:32:43.457Z,-2.22
2022-12-17T09:36:04.219Z,-2.10
2022-12-17T09:39:24.883Z,-2.17
2022-12-17T09:42:58.248Z,-2.20
2022-12-17T09:46:28.461Z,-2.31
2022-12-17T09:49:49.522Z,-2.10
2022-12-17T09:53:25.371Z,-2.15
2022-12-17T09:56:49.986Z,-2.20
2022-12-17T10:00:13.346Z,-2.12
2022-12-17T10:03:38.918Z,-1.97
2022-12-17T10:06:59.848Z,-2.03
2022-12-17T10:10:34.948Z,-2.02
2022-12-17T10:13:55.788Z,-2.12
2022-12-17T10:17:16.651Z,-2.23
2022-12-17T10:20:43.267Z,-2.17
2022-12-17T10:24:06.559Z,-2.27
2022-12-17T10:27:29.044Z,-2.17
2022-12-17T10:30:51.167Z,-2.05
2022-12-17T10:34:20.620Z,-2.12
2022-12-17T10:37:46.431Z,-2.29
2022-12-17T10:41:18.478Z,-2.32
2022-12-17T10:44:48.477Z,-2.21
2022-12-17T10:48:09.026Z,-2.13
2022-12-17T10:51:40.310Z,-2.18
2022-12-17T10:55:05.010Z,-2.16
2022-12-17T10:58:33.646Z,-2.05
2022-12-17T11:01:58.319Z,-1.92
2022-12-17T11:05:21.892Z,-2.02
2022-12-17T11:08:45.735Z,-2.19
2022-12-17T11:12:11.106Z,-2.16
2022-12-17T11:15:44.489Z,-1.97
2022-12-17T11:19:14.897Z,-2.16
2022-12-17T11:22:50.420Z,-2.08
2022-12-17T11:26:14.568Z,-2.00
2022-12-17T11:29:36.727Z,-1.98
2022-12-17T11:33:27.012Z,-1.91
2022-12-17T11:36:56.514Z,-1.73
2022-12-17T11:40:30.642Z,-1.73
2022-12-17T11:44:00.931Z,-1.69
2022-12-17T11:47:35.999Z,-1.83
2022-12-17T11:51:03.242Z,-1.78
2022-12-17T11:54:33.421Z,-1.82
2022-12-17T11:58:08.365Z,-1.80
2022-12-17T12:01:39.559Z,-2.09
2022-12-17T12:05:29.809Z,-1.93
2022-12-17T12:08:55.474Z,-2.05
2022-12-17T12:12:24.131Z,-1.99
2022-12-17T12:15:55.305Z,-1.89
2022-12-17T12:19:25.163Z,-1.95
2022-12-17T12:22:56.868Z,-1.97
2022-12-17T12:26:27.693Z,-1.87
2022-12-17T12:29:55.526Z,-1.80
2022-12-17T12:33:36.145Z,-1.78
2022-12-17T12:37:01.692Z,-1.72
2022-12-17T12:40:33.446Z,-1.78
2022-12-17T12:43:59.654Z,-1.90
2022-12-17T12:47:28.819Z,-1.95
2022-12-17T12:51:01.014Z,-1.85
2022-12-17T12:54:42.316Z,-1.85
2022-12-17T12:58:18.587Z,-1.76
2022-12-17T13:01:51.942Z,-1.78
2022-12-17T13:05:19.771Z,-1.84
2022-12-17T13:08:29.617Z,-1.79
2022-12-17T13:11:39.180Z,-1.86
2022-12-17T13:14:53.373Z,-1.93
2022-12-17T13:18:07.977Z,-1.88
2022-12-17T13:21:27.512Z,-1.82
2022-12-17T13:24:32.535Z,-1.88
2022-12-17T13:27:40.643Z,-1.96
2022-12-17T13:30:45.018Z,-2.02
2022-12-17T13:33:57.863Z,-1.97
2022-12-17T13:37:06.710Z,-1.83
2022-12-17T13:40:26.704Z,-1.75
2022-12-17T13:43:41.531Z,-1.72
2022-12-17T13:46:51.948Z,-1.78
2022-12-17T13:50:32.269Z,-1.74
2022-12-17T13:53:23.896Z,-1.71
2022-12-17T13:56:29.346Z,-1.70
2022-12-17T13:59:32.528Z,-1.92
2022-12-17T14:02:39.385Z,-1.96
2022-12-17T14:05:46.014Z,-1.92
2022-12-17T14:08:52.358Z,-1.98
2022-12-17T14:12:13.724Z,-1.96
2022-12-17T14:15:28.587Z,-1.82
2022-12-17T14:18:33.059Z,-1.88
2022-12-17T14:21:38.452Z,-1.86
2022-12-17T14:24:41.485Z,-1.82
2022-12-17T14:27:54.544Z,-1.80
2022-12-17T14:34:41.534Z,-2.04
2022-12-17T14:37:48.280Z,-2.14
2022-12-17T14:40:54.961Z,-2.16
2022-12-17T14:43:59.902Z,-2.14
2022-12-17T14:47:16.909Z,-2.04
2022-12-17T14:50:32.107Z,-1.97
2022-12-17T14:53:36.391Z,-2.08
2022-12-17T14:56:40.109Z,-2.23
2022-12-17T14:59:43.426Z,-2.43
2022-12-17T15:02:52.886Z,-2.55
2022-12-17T15:05:59.981Z,-2.55
2022-12-17T15:09:05.488Z,-2.67
2022-12-17T15:12:08.938Z,-2.64
2022-12-17T15:15:14.682Z,-2.52
2022-12-17T15:18:20.906Z,-2.36
2022-12-17T15:21:32.804Z,-2.48
2022-12-17T15:24:36.034Z,-2.34
2022-12-17T15:27:41.910Z,-2.36
2022-12-17T15:30:45.856Z,-2.46
2022-12-17T15:33:48.886Z,-2.39
2022-12-17T15:36:53.251Z,-2.31
2022-12-17T15:39:56.996Z,-2.29
2022-12-17T15:43:12.704Z,-2.25
2022-12-17T15:46:16.351Z,-2.38
2022-12-17T15:49:19.500Z,-2.32
2022-12-17T15:52:24.281Z,-2.49
2022-12-17T15:55:27.941Z,-2.51
2022-12-17T15:58:31.531Z,-2.61
2022-12-17T16:01:35.360Z,-2.63
2022-12-17T16:04:38.979Z,-2.65
2022-12-17T16:07:44.284Z,-2.83
2022-12-17T16:10:47.291Z,-2.85
2022-12-17T16:13:55.092Z,-2.82
2022-12-17T16:16:58.476Z,-3.07
2022-12-17T16:20:01.671Z,-3.04
2022-12-17T16:23:05.975Z,-3.14
2022-12-17T16:26:11.986Z,-3.02
2022-12-17T16:29:15.313Z,-2.88
2022-12-17T16:32:18.725Z,-2.82
2022-12-17T16:35:23.692Z,-2.83
2022-12-17T16:38:28.640Z,-2.88
2022-12-17T16:41:34.186Z,-3.01
2022-12-17T16:44:37.187Z,-2.90
2022-12-17T16:47:40.154Z,-2.97
2022-12-17T16:50:43.196Z,-2.92
2022-12-17T16:53:50.422Z,-2.93
2022-12-17T16:56:54.818Z,-2.97
2022-12-17T16:59:57.825Z,-3.04
2022-12-17T17:03:01.606Z,-3.07
2022-12-17T17:06:07.698Z,-3.07
2022-12-17T17:09:13.650Z,-3.11
2022-12-17T17:12:19.055Z,-3.07
2022-12-17T17:15:23.305Z,-3.09
2022-12-17T17:18:26.842Z,-3.12
2022-12-17T17:21:35.191Z,-3.12
2022-12-17T17:24:39.626Z,-3.14
2022-12-17T17:27:45.768Z,-3.19
2022-12-17T17:30:49.402Z,-3.36
2022-12-17T17:33:55.811Z,-3.35
2022-12-17T17:36:58.812Z,-3.29
2022-12-17T17:40:03.415Z,-3.24
2022-12-17T17:43:10.549Z,-3.22
2022-12-17T17:46:17.696Z,-3.19
2022-12-17T17:49:20.761Z,-3.16
2022-12-17T18:08:39.033Z,-3.50
2022-12-17T18:11:45.113Z,-3.50
2022-12-17T18:15:12.756Z,-3.51
2022-12-17T18:18:14.684Z,-3.53
2022-12-17T18:21:23.207Z,-3.62
2022-12-17T18:24:28.169Z,-3.60
2022-12-17T18:27:32.042Z,-3.69
2022-12-17T18:30:39.153Z,-3.59
2022-12-17T18:33:45.852Z,-3.59
2022-12-17T18:36:51.134Z,-3.52
2022-12-17T18:39:56.156Z,-3.50
2022-12-17T18:43:17.625Z,-3.43
2022-12-17T18:46:23.489Z,-3.56
2022-12-17T18:49:28.183Z,-3.48
2022-12-17T18:52:32.471Z,-3.48
2022-12-17T18:55:40.789Z,-3.46
2022-12-17T18:58:45.201Z,-3.57
2022-12-17T19:01:50.006Z,-3.66
2022-12-17T19:04:53.609Z,-3.75
2022-12-17T19:07:57.275Z,-3.75
2022-12-17T19:11:07.139Z,-3.83
2022-12-17T19:14:13.526Z,-3.83
2022-12-17T19:17:16.983Z,-3.90
2022-12-17T19:20:20.779Z,-3.86
2022-12-17T19:23:26.598Z,-4.01
2022-12-17T19:26:34.491Z,-4.06
2022-12-17T19:29:39.061Z,-4.03
2022-12-17T19:32:46.135Z,-4.07
2022-12-17T19:35:49.951Z,-4.20
2022-12-17T19:38:54.783Z,-4.24
2022-12-17T19:41:59.235Z,-4.29
2022-12-17T19:45:02.461Z,-4.27
2022-12-17T19:48:05.734Z,-4.25
2022-12-17T19:51:11.222Z,-4.28
2022-12-17T19:54:15.687Z,-4.27
2022-12-17T19:57:19.990Z,-4.25
2022-12-17T20:00:23.366Z,-4.15
2022-12-17T20:03:26.416Z,-4.16
2022-12-17T20:06:33.098Z,-4.13
2022-12-17T20:09:36.096Z,-4.30
2022-12-17T20:12:40.424Z,-4.48
2022-12-17T20:15:43.460Z,-4.49
2022-12-17T20:18:46.492Z,-4.44
2022-12-17T20:21:49.990Z,-4.41
2022-12-17T20:24:53.147Z,-4.44
2022-12-17T20:27:57.975Z,-4.44
2022-12-17T20:31:01.915Z,-4.49
2022-12-17T20:34:07.358Z,-4.43
2022-12-17T20:37:10.313Z,-4.37
2022-12-17T20:40:13.517Z,-4.46
2022-12-17T20:43:17.826Z,-4.40
2022-12-17T20:46:22.529Z,-4.37
2022-12-17T20:49:25.594Z,-4.30
2022-12-17T20:52:28.629Z,-4.33
2022-12-17T20:55:31.665Z,-4.44
2022-12-17T20:58:37.243Z,-4.43
2022-12-17T21:01:40.717Z,-4.47
2022-12-17T21:04:44.411Z,-4.44
2022-12-17T21:07:47.477Z,-4.46
2022-12-17T21:10:56.861Z,-4.51
2022-12-17T21:14:04.754Z,-4.44
2022-12-17T21:17:08.043Z,-4.36
2022-12-17T21:20:12.196Z,-4.38
2022-12-17T21:23:15.458Z,-4.58
2022-12-17T21:26:21.560Z,-4.67
2022-12-17T21:29:25.915Z,-4.64
2022-12-17T21:32:33.663Z,-4.67
2022-12-17T21:35:37.077Z,-4.68
2022-12-17T21:38:40.665Z,-4.66
2022-12-17T21:42:03.370Z,-4.77
2022-12-17T21:45:09.376Z,-4.74
2022-12-17T21:48:15.237Z,-4.68
2022-12-17T21:51:18.689Z,-4.72
2022-12-17T21:54:22.017Z,-4.85
2022-12-17T21:57:25.158Z,-4.80
2022-12-17T22:00:29.590Z,-4.83
2022-12-17T22:03:32.583Z,-4.70
2022-12-17T22:06:51.429Z,-4.74
2022-12-17T22:10:33.339Z,-4.90
2022-12-17T22:13:43.048Z,-5.11
2022-12-17T22:16:49.878Z,-5.15
2022-12-17T22:19:53.211Z,-5.15
2022-12-17T22:22:56.404Z,-5.20
2022-12-17T22:26:00.422Z,-5.12
2022-12-17T22:29:04.467Z,-5.13
2022-12-17T22:32:29.087Z,-5.08
2022-12-17T22:36:52.297Z,-5.01
2022-12-17T22:42:06.228Z,-4.87
2022-12-17T22:44:49.039Z,-4.79
2022-12-17T22:46:08.682Z,-4.79
2022-12-17T22:49:13.763Z,-4.96
2022-12-17T22:52:18.240Z,-5.01
2022-12-17T22:55:23.365Z,-5.08
2022-12-17T22:58:27.662Z,-5.07
2022-12-17T23:01:32.032Z,-5.01
2022-12-17T23:04:37.207Z,-5.17
2022-12-17T23:07:41.174Z,-5.22
2022-12-17T23:10:44.870Z,-5.39
2022-12-17T23:13:48.731Z,-5.39
2022-12-17T23:16:52.569Z,-5.42
2022-12-17T23:19:57.544Z,-5.41
2022-12-17T23:23:01.713Z,-5.40
2022-12-17T23:26:09.779Z,-5.30
2022-12-17T23:29:19.754Z,-5.26
2022-12-17T23:32:23.859Z,-5.23
2022-12-17T23:35:28.810Z,-5.17
2022-12-17T23:38:34.038Z,-5.22
2022-12-17T23:41:37.616Z,-5.34
2022-12-17T23:44:41.145Z,-5.41
2022-12-17T23:47:46.008Z,-5.43
2022-12-17T23:50:50.486Z,-5.49
2022-12-17T23:54:02.710Z,-5.47
2022-12-17T23:57:06.272Z,-5.53
